createdAt,value
2023-04-18T00:00:14.385Z,0.81
2023-04-18T00:01:14.427Z,0.82
2023-04-18T00:02:14.503Z,0.80
2023-04-18T00:03:14.605Z,0.79
2023-04-18T00:04:14.962Z,0.79
2023-04-18T00:05:14.612Z,0.80
2023-04-18T00:06:14.646Z,0.80
2023-04-18T00:07:14.602Z,0.78
2023-04-18T00:08:14.597Z,0.79
2023-04-18T00:09:14.734Z,0.81
2023-04-18T00:10:14.700Z,0.78
2023-04-18T00:11:14.723Z,0.80
2023-04-18T00:12:14.777Z,0.80
2023-04-18T00:13:14.778Z,0.78
2023-04-18T00:14:15.111Z,0.78
2023-04-18T00:15:14.815Z,0.79
2023-04-18T00:16:14.927Z,0.79
2023-04-18T00:17:14.925Z,0.79
2023-04-18T00:18:14.872Z,0.80
2023-04-18T00:19:14.898Z,0.80
2023-04-18T00:20:14.920Z,0.79
2023-04-18T00:21:14.938Z,0.81
2023-04-18T00:22:14.978Z,0.79
2023-04-18T00:23:15.037Z,0.82
2023-04-18T00:24:15.152Z,0.79
2023-04-18T00:25:15.070Z,0.81
2023-04-18T00:26:15.089Z,0.79
2023-04-18T00:27:15.131Z,0.78
2023-04-18T00:28:15.173Z,0.78
2023-04-18T00:29:15.197Z,0.80
2023-04-18T00:30:15.231Z,0.80
2023-04-18T00:31:15.253Z,0.78
2023-04-18T00:32:15.257Z,0.80
2023-04-18T00:33:15.274Z,0.77
2023-04-18T00:34:15.531Z,0.79
2023-04-18T00:35:15.341Z,0.80
2023-04-18T00:36:15.343Z,0.80
2023-04-18T00:37:15.381Z,0.80
2023-04-18T00:38:15.408Z,0.79
2023-04-18T00:39:15.409Z,0.78
2023-04-18T00:40:15.472Z,0.79
2023-04-18T00:41:15.535Z,0.79
2023-04-18T00:42:15.519Z,0.78
2023-04-18T00:43:15.539Z,0.78
2023-04-18T00:44:15.699Z,0.78
2023-04-18T00:45:15.636Z,0.78
2023-04-18T00:46:15.727Z,0.78
2023-04-18T00:47:15.702Z,0.78
2023-04-18T00:48:15.717Z,0.77
2023-04-18T00:49:15.715Z,0.78
2023-04-18T00:50:15.743Z,0.78
2023-04-18T00:51:15.813Z,0.77
2023-04-18T00:52:15.789Z,0.79
2023-04-18T00:53:15.852Z,0.80
2023-04-18T00:54:16.111Z,0.78
2023-04-18T00:55:15.872Z,0.77
2023-04-18T00:56:15.934Z,0.78
2023-04-18T00:57:15.963Z,0.77
2023-04-18T00:58:15.958Z,0.77
2023-04-18T00:59:15.986Z,0.78
2023-04-18T01:00:16.030Z,0.77
2023-04-18T01:01:16.104Z,0.78
2023-04-18T01:02:16.218Z,0.76
2023-04-18T01:03:16.270Z,0.77
2023-04-18T01:04:16.438Z,0.78
2023-04-18T01:05:16.159Z,0.79
2023-04-18T01:06:16.158Z,0.78
2023-04-18T01:07:16.186Z,0.76
2023-04-18T01:08:16.240Z,0.74
2023-04-18T01:09:16.290Z,0.75
2023-04-18T01:10:16.270Z,0.75
2023-04-18T01:11:16.298Z,0.74
2023-04-18T01:12:16.355Z,0.74
2023-04-18T01:13:16.364Z,0.75
2023-04-18T01:14:16.389Z,0.76
2023-04-18T01:15:16.443Z,0.74
2023-04-18T01:16:16.476Z,0.74
2023-04-18T01:17:16.474Z,0.74
2023-04-18T01:18:16.503Z,0.75
2023-04-18T01:19:16.532Z,0.73
2023-04-18T01:20:16.548Z,0.73
2023-04-18T01:21:16.567Z,0.73
2023-04-18T01:22:16.624Z,0.72
2023-04-18T01:23:16.640Z,0.75
2023-04-18T01:24:16.813Z,0.73
2023-04-18T01:25:16.663Z,0.74
2023-04-18T01:26:16.724Z,0.73
2023-04-18T01:27:16.749Z,0.74
2023-04-18T01:28:16.794Z,0.75
2023-04-18T01:29:16.793Z,0.75
2023-04-18T01:30:16.811Z,0.74
2023-04-18T01:31:16.921Z,0.73
2023-04-18T01:32:16.915Z,0.73
2023-04-18T01:33:16.918Z,0.76
2023-04-18T01:34:16.965Z,0.75
2023-04-18T01:35:17.058Z,0.75
2023-04-18T01:36:17.011Z,0.75
2023-04-18T01:37:17.136Z,0.74
2023-04-18T01:38:17.110Z,0.73
2023-04-18T01:39:17.144Z,0.74
2023-04-18T01:40:17.158Z,0.74
2023-04-18T01:41:17.206Z,0.72
2023-04-18T01:42:17.226Z,0.73
2023-04-18T01:43:17.233Z,0.73
2023-04-18T01:44:17.264Z,0.72
2023-04-18T01:45:17.294Z,0.71
2023-04-18T01:46:17.366Z,0.72
2023-04-18T01:47:17.416Z,0.73
2023-04-18T01:48:17.398Z,0.71
2023-04-18T01:49:17.432Z,0.71
2023-04-18T01:50:17.469Z,0.70
2023-04-18T01:51:17.490Z,0.70
2023-04-18T01:52:17.551Z,0.69
2023-04-18T01:53:17.559Z,0.70
2023-04-18T01:54:17.603Z,0.70
2023-04-18T01:55:17.625Z,0.68
2023-04-18T01:56:17.643Z,0.69
2023-04-18T01:57:17.672Z,0.70
2023-04-18T01:58:17.711Z,0.70
2023-04-18T01:59:17.728Z,0.68
2023-04-18T02:00:17.763Z,0.67
2023-04-18T02:01:17.814Z,0.68
2023-04-18T02:02:17.878Z,0.67
2023-04-18T02:03:18.023Z,0.66
2023-04-18T02:04:18.041Z,0.69
2023-04-18T02:05:17.921Z,0.68
2023-04-18T02:06:17.938Z,0.69
2023-04-18T02:07:18.012Z,0.70
2023-04-18T02:08:18.015Z,0.68
2023-04-18T02:09:18.068Z,0.68
2023-04-18T02:10:18.080Z,0.69
2023-04-18T02:11:18.110Z,0.69
2023-04-18T02:12:18.177Z,0.70
2023-04-18T02:13:18.227Z,0.71
2023-04-18T02:14:18.226Z,0.70
2023-04-18T02:15:18.245Z,0.71
2023-04-18T02:16:18.333Z,0.72
2023-04-18T02:17:18.331Z,0.71
2023-04-18T02:18:18.346Z,0.72
2023-04-18T02:19:18.359Z,0.71
2023-04-18T02:20:18.385Z,0.72
2023-04-18T02:21:18.385Z,0.74
2023-04-18T02:22:18.429Z,0.75
2023-04-18T02:23:18.397Z,0.76
2023-04-18T02:24:18.414Z,0.77
2023-04-18T02:25:18.412Z,0.77
2023-04-18T02:26:18.464Z,0.75
2023-04-18T02:27:18.486Z,0.76
2023-04-18T02:28:18.524Z,0.75
2023-04-18T02:29:18.524Z,0.75
2023-04-18T02:30:18.522Z,0.74
2023-04-18T02:31:18.542Z,0.74
2023-04-18T02:32:18.542Z,0.74
2023-04-18T02:33:18.565Z,0.70
2023-04-18T02:34:18.560Z,0.70
2023-04-18T02:35:18.529Z,0.71
2023-04-18T02:36:18.541Z,0.69
2023-04-18T02:37:18.568Z,0.69
2023-04-18T02:38:18.537Z,0.68
2023-04-18T02:39:18.588Z,0.69
2023-04-18T02:40:18.587Z,0.68
2023-04-18T02:41:18.553Z,0.66
2023-04-18T02:42:18.583Z,0.66
2023-04-18T02:43:18.571Z,0.67
2023-04-18T02:44:18.575Z,0.66
2023-04-18T02:45:18.586Z,0.66
2023-04-18T02:46:18.632Z,0.67
2023-04-18T02:47:18.598Z,0.65
2023-04-18T02:48:18.583Z,0.66
2023-04-18T02:49:18.575Z,0.65
2023-04-18T02:50:18.568Z,0.65
2023-04-18T02:51:18.572Z,0.65
2023-04-18T02:52:18.600Z,0.65
2023-04-18T02:53:18.578Z,0.63
2023-04-18T02:54:18.556Z,0.63
2023-04-18T02:55:18.575Z,0.64
2023-04-18T02:56:18.547Z,0.64
2023-04-18T02:57:18.521Z,0.63
2023-04-18T02:58:18.546Z,0.62
2023-04-18T02:59:18.504Z,0.63
2023-04-18T03:00:18.511Z,0.63
2023-04-18T03:01:18.532Z,0.63
2023-04-18T03:02:18.544Z,0.62
2023-04-18T03:03:18.478Z,0.63
2023-04-18T03:04:18.517Z,0.61
2023-04-18T03:05:18.429Z,0.62
2023-04-18T03:06:18.466Z,0.63
2023-04-18T03:07:18.423Z,0.63
2023-04-18T03:08:18.462Z,0.62
2023-04-18T03:09:18.938Z,0.62
2023-04-18T03:10:18.440Z,0.62
2023-04-18T03:11:18.436Z,0.63
2023-04-18T03:12:18.432Z,0.62
2023-04-18T03:13:18.427Z,0.61
2023-04-18T03:14:18.410Z,0.61
2023-04-18T03:15:18.438Z,0.63
2023-04-18T03:16:18.465Z,0.62
2023-04-18T03:17:18.435Z,0.62
2023-04-18T03:18:18.395Z,0.62
2023-04-18T03:19:18.396Z,0.63
2023-04-18T03:20:18.390Z,0.62
2023-04-18T03:21:18.385Z,0.62
2023-04-18T03:22:18.426Z,0.61
2023-04-18T03:23:18.411Z,0.63
2023-04-18T03:24:18.407Z,0.63
2023-04-18T03:25:18.388Z,0.62
2023-04-18T03:26:18.432Z,0.62
2023-04-18T03:27:18.396Z,0.62
2023-04-18T03:28:18.406Z,0.61
2023-04-18T03:29:18.446Z,0.61
2023-04-18T03:30:18.402Z,0.61
2023-04-18T03:31:18.532Z,0.60
2023-04-18T03:32:18.437Z,0.61
2023-04-18T03:33:18.417Z,0.62
2023-04-18T03:34:18.387Z,0.63
2023-04-18T03:35:18.420Z,0.62
2023-04-18T03:36:18.465Z,0.62
2023-04-18T03:37:18.416Z,0.61
2023-04-18T03:38:18.434Z,0.62
2023-04-18T03:39:18.426Z,0.61
2023-04-18T03:40:18.462Z,0.60
2023-04-18T03:41:18.468Z,0.60
2023-04-18T03:42:18.493Z,0.61
2023-04-18T03:43:18.513Z,0.61
2023-04-18T03:44:18.548Z,0.61
2023-04-18T03:45:18.556Z,0.61
2023-04-18T03:46:18.593Z,0.61
2023-04-18T03:47:18.620Z,0.61
2023-04-18T03:48:18.569Z,0.62
2023-04-18T03:49:18.577Z,0.64
2023-04-18T03:50:18.628Z,0.62
2023-04-18T03:51:18.625Z,0.61
2023-04-18T03:52:18.637Z,0.62
2023-04-18T03:53:18.624Z,0.63
2023-04-18T03:54:18.650Z,0.62
2023-04-18T03:55:18.645Z,0.62
2023-04-18T03:56:18.646Z,0.63
2023-04-18T03:57:18.689Z,0.63
2023-04-18T03:58:18.687Z,0.61
2023-04-18T03:59:18.687Z,0.63
2023-04-18T04:00:18.703Z,0.64
2023-04-18T04:01:18.731Z,0.64
2023-04-18T04:02:18.906Z,0.64
2023-04-18T04:03:18.836Z,0.63
2023-04-18T04:04:19.074Z,0.64
2023-04-18T04:05:18.801Z,0.65
2023-04-18T04:06:18.819Z,0.64
2023-04-18T04:07:18.884Z,0.64
2023-04-18T04:08:18.865Z,0.65
2023-04-18T04:09:18.879Z,0.65
2023-04-18T04:10:18.838Z,0.65
2023-04-18T04:11:18.877Z,0.64
2023-04-18T04:12:18.917Z,0.64
2023-04-18T04:13:18.987Z,0.67
2023-04-18T04:14:18.968Z,0.65
2023-04-18T04:15:19.006Z,0.66
2023-04-18T04:16:19.045Z,0.66
2023-04-18T04:17:19.078Z,0.65
2023-04-18T04:18:19.076Z,0.66
2023-04-18T04:19:19.082Z,0.66
2023-04-18T04:20:19.980Z,0.67
2023-04-18T04:21:21.106Z,0.68
2023-04-18T04:22:19.149Z,0.68
2023-04-18T04:23:19.177Z,0.68
2023-04-18T04:24:19.205Z,0.69
2023-04-18T04:25:19.209Z,0.69
2023-04-18T04:26:19.203Z,0.70
2023-04-18T04:27:19.234Z,0.70
2023-04-18T04:28:19.273Z,0.70
2023-04-18T04:29:19.250Z,0.71
2023-04-18T04:30:19.300Z,0.71
2023-04-18T04:31:19.322Z,0.71
2023-04-18T04:32:19.314Z,0.71
2023-04-18T04:33:19.300Z,0.74
2023-04-18T04:34:19.304Z,0.75
2023-04-18T04:35:19.328Z,0.74
2023-04-18T04:36:19.354Z,0.75
2023-04-18T04:37:19.344Z,0.74
2023-04-18T04:38:19.348Z,0.75
2023-04-18T04:39:19.364Z,0.74
2023-04-18T04:40:19.382Z,0.74
2023-04-18T04:41:19.438Z,0.75
2023-04-18T04:42:19.403Z,0.75
2023-04-18T04:43:19.459Z,0.75
2023-04-18T04:44:19.488Z,0.75
2023-04-18T04:45:19.462Z,0.75
2023-04-18T04:46:19.534Z,0.75
2023-04-18T04:47:19.464Z,0.74
2023-04-18T04:48:19.496Z,0.76
2023-04-18T04:49:19.527Z,0.74
2023-04-18T04:50:19.562Z,0.73
2023-04-18T04:51:19.511Z,0.74
2023-04-18T04:52:19.554Z,0.74
2023-04-18T04:53:19.579Z,0.73
2023-04-18T04:54:19.565Z,0.74
2023-04-18T04:55:19.578Z,0.74
2023-04-18T04:56:19.583Z,0.74
2023-04-18T04:57:19.618Z,0.73
2023-04-18T04:58:19.618Z,0.73
2023-04-18T04:59:19.639Z,0.76
2023-04-18T05:01:39.102Z,0.50
2023-04-18T05:02:38.977Z,0.50
2023-04-18T05:03:39.030Z,0.50
2023-04-18T05:04:39.127Z,0.50
2023-04-18T05:05:38.932Z,0.50
2023-04-18T05:06:40.286Z,0.50
2023-04-18T05:07:38.973Z,0.51
2023-04-18T05:08:38.969Z,0.51
2023-04-18T05:09:38.985Z,0.51
2023-04-18T05:10:38.986Z,0.50
2023-04-18T05:11:39.001Z,0.51
2023-04-18T05:12:39.036Z,0.51
2023-04-18T05:13:39.045Z,0.51
2023-04-18T05:14:39.052Z,0.51
2023-04-18T05:15:39.075Z,0.51
2023-04-18T05:16:39.139Z,0.50
2023-04-18T05:17:39.131Z,0.51
2023-04-18T05:18:39.123Z,0.52
2023-04-18T05:19:39.130Z,0.51
2023-04-18T05:20:39.122Z,0.51
2023-04-18T05:21:39.136Z,0.52
2023-04-18T05:22:39.222Z,0.51
2023-04-18T05:23:39.157Z,0.52
2023-04-18T05:24:39.221Z,0.51
2023-04-18T05:25:39.232Z,0.51
2023-04-18T05:26:39.236Z,0.51
2023-04-18T05:27:39.267Z,0.52
2023-04-18T05:28:39.301Z,0.52
2023-04-18T05:29:39.309Z,0.52
2023-04-18T05:30:39.335Z,0.52
2023-04-18T05:31:39.318Z,0.53
2023-04-18T05:32:39.411Z,0.52
2023-04-18T05:33:39.548Z,0.52
2023-04-18T05:34:39.506Z,0.53
2023-04-18T05:35:39.558Z,0.54
2023-04-18T05:36:39.625Z,0.50
2023-04-18T05:37:39.686Z,0.51
2023-04-18T05:38:40.045Z,0.56
2023-04-18T05:39:39.819Z,0.58
2023-04-18T05:40:39.868Z,0.62
2023-04-18T05:41:39.955Z,0.64
2023-04-18T05:42:40.002Z,0.67
2023-04-18T05:43:40.205Z,0.68
2023-04-18T05:44:41.041Z,0.69
2023-04-18T05:45:47.278Z,0.72
2023-04-18T05:46:40.291Z,0.72
2023-04-18T05:47:40.348Z,0.73
2023-04-18T05:48:40.544Z,0.66
2023-04-18T05:49:40.311Z,0.69
2023-04-18T05:50:40.346Z,0.76
2023-04-18T05:51:40.387Z,0.78
2023-04-18T05:52:40.407Z,0.85
2023-04-18T05:53:40.541Z,1.05
2023-04-18T05:54:40.499Z,1.17
2023-04-18T05:55:40.513Z,1.30
2023-04-18T05:56:40.515Z,1.41
2023-04-18T05:57:40.537Z,1.55
2023-04-18T05:58:40.540Z,1.69
2023-04-18T05:59:40.555Z,1.83
2023-04-18T06:00:40.595Z,2.01
2023-04-18T06:01:40.613Z,2.14
2023-04-18T06:02:41.796Z,2.15
2023-04-18T06:03:41.154Z,2.19
2023-04-18T06:04:40.730Z,2.31
2023-04-18T06:05:40.716Z,2.53
2023-04-18T06:06:40.639Z,3.01
2023-04-18T06:07:40.708Z,3.20
2023-04-18T06:08:40.675Z,3.32
2023-04-18T06:09:40.699Z,3.63
2023-04-18T06:10:40.681Z,3.76
2023-04-18T06:11:40.724Z,4.01
2023-04-18T06:12:40.739Z,4.23
2023-04-18T06:13:40.713Z,4.54
2023-04-18T06:14:40.750Z,4.79
2023-04-18T06:15:40.770Z,5.20
2023-04-18T06:16:40.929Z,5.47
2023-04-18T06:17:40.893Z,5.82
2023-04-18T06:18:41.112Z,6.13
2023-04-18T06:19:40.953Z,6.56
2023-04-18T06:20:40.946Z,6.82
2023-04-18T06:21:40.961Z,7.17
2023-04-18T06:22:41.025Z,7.53
2023-04-18T06:23:41.051Z,8.05
2023-04-18T06:24:41.036Z,8.26
2023-04-18T06:25:41.111Z,8.57
2023-04-18T06:26:41.152Z,8.93
2023-04-18T06:27:41.150Z,9.13
2023-04-18T06:28:41.211Z,9.53
2023-04-18T06:29:42.087Z,9.87
2023-04-18T06:30:41.275Z,10.17
2023-04-18T06:31:41.363Z,10.55
2023-04-18T06:32:41.311Z,11.10
2023-04-18T06:33:41.505Z,11.57
2023-04-18T06:34:41.412Z,12.54
2023-04-18T06:35:41.464Z,15.26
2023-04-18T06:36:41.473Z,16.47
2023-04-18T06:37:41.503Z,14.59
2023-04-18T06:38:41.617Z,13.67
2023-04-18T06:39:41.587Z,11.73
2023-04-18T06:40:41.594Z,10.40
2023-04-18T06:41:41.643Z,10.07
2023-04-18T06:42:42.618Z,9.49
2023-04-18T06:43:49.163Z,6.83
2023-04-18T06:44:43.107Z,5.95
2023-04-18T06:45:41.768Z,5.21
2023-04-18T06:46:41.745Z,4.23
2023-04-18T06:47:41.779Z,3.71
2023-04-18T06:48:41.750Z,3.20
2023-04-18T06:49:41.812Z,3.10
2023-04-18T06:50:41.804Z,3.39
2023-04-18T06:51:41.802Z,2.72
2023-04-18T06:52:41.842Z,2.29
2023-04-18T06:53:41.824Z,2.13
2023-04-18T06:54:41.893Z,2.01
2023-04-18T06:55:41.849Z,1.93
2023-04-18T06:56:41.908Z,1.83
2023-04-18T06:57:41.963Z,1.71
2023-04-18T06:58:42.014Z,1.72
2023-04-18T06:59:42.137Z,1.67
2023-04-18T07:00:42.195Z,1.68
2023-04-18T07:01:42.251Z,1.60
2023-04-18T07:02:42.403Z,1.58
2023-04-18T07:03:42.441Z,1.62
2023-04-18T07:04:42.723Z,1.68
2023-04-18T07:05:42.509Z,1.63
2023-04-18T07:06:42.567Z,1.63
2023-04-18T07:07:42.628Z,1.73
2023-04-18T07:08:42.704Z,1.66
2023-04-18T07:09:43.118Z,1.77
2023-04-18T07:10:42.827Z,1.70
2023-04-18T07:11:42.911Z,1.69
2023-04-18T07:12:42.973Z,1.78
2023-04-18T07:13:42.990Z,1.74
2023-04-18T07:14:43.095Z,1.73
2023-04-18T07:15:43.187Z,1.79
2023-04-18T07:16:43.239Z,1.83
2023-04-18T07:17:43.330Z,1.86
2023-04-18T07:18:43.340Z,1.94
2023-04-18T07:19:43.396Z,1.90
2023-04-18T07:20:43.441Z,1.96
2023-04-18T07:21:43.592Z,1.88
2023-04-18T07:22:43.621Z,2.02
2023-04-18T07:23:43.661Z,1.97
2023-04-18T07:24:43.744Z,1.98
2023-04-18T07:25:43.803Z,1.93
2023-04-18T07:26:43.904Z,2.00
2023-04-18T07:27:43.908Z,2.05
2023-04-18T07:28:44.004Z,1.84
2023-04-18T07:29:44.143Z,1.55
2023-04-18T07:30:44.174Z,1.31
2023-04-18T07:31:44.214Z,1.41
2023-04-18T07:32:44.324Z,1.57
2023-04-18T07:33:44.310Z,1.71
2023-04-18T07:34:44.431Z,1.87
2023-04-18T07:35:44.538Z,2.20
2023-04-18T07:36:44.536Z,2.88
2023-04-18T07:37:44.652Z,2.94
2023-04-18T07:38:44.704Z,3.06
2023-04-18T07:39:45.110Z,3.54
2023-04-18T07:40:44.808Z,5.70
2023-04-18T07:41:44.873Z,7.46
2023-04-18T07:42:45.001Z,6.65
2023-04-18T07:43:45.072Z,4.99
2023-04-18T07:44:45.097Z,4.73
2023-04-18T07:45:45.160Z,4.73
2023-04-18T07:46:45.388Z,4.48
2023-04-18T07:47:45.360Z,4.55
2023-04-18T07:48:45.372Z,4.61
2023-04-18T07:49:45.447Z,4.53
2023-04-18T07:50:45.555Z,4.66
2023-04-18T07:51:45.611Z,4.61
2023-04-18T07:52:45.684Z,4.58
2023-04-18T07:53:45.721Z,4.65
2023-04-18T07:54:45.838Z,4.60
2023-04-18T07:55:45.831Z,4.61
2023-04-18T07:56:45.914Z,4.70
2023-04-18T07:57:47.067Z,4.84
2023-04-18T07:58:46.027Z,4.91
2023-04-18T07:59:46.083Z,5.44
2023-04-18T08:00:46.094Z,5.58
2023-04-18T08:01:46.151Z,5.46
2023-04-18T08:02:46.369Z,5.27
2023-04-18T08:03:46.360Z,5.26
2023-04-18T08:04:46.436Z,5.21
2023-04-18T08:05:46.520Z,5.11
2023-04-18T08:06:46.324Z,5.29
2023-04-18T08:07:46.420Z,5.37
2023-04-18T08:08:46.438Z,5.48
2023-04-18T08:09:46.454Z,5.58
2023-04-18T08:10:46.477Z,5.79
2023-04-18T08:11:46.521Z,5.91
2023-04-18T08:12:46.541Z,6.16
2023-04-18T08:13:46.519Z,6.26
2023-04-18T08:14:46.588Z,6.56
2023-04-18T08:15:46.618Z,7.69
2023-04-18T08:16:46.647Z,7.60
2023-04-18T08:17:46.697Z,7.70
2023-04-18T08:18:46.731Z,7.87
2023-04-18T08:19:46.745Z,7.89
2023-04-18T08:20:46.807Z,8.12
2023-04-18T08:21:46.809Z,8.25
2023-04-18T08:23:01.986Z,8.52
2023-04-18T08:23:47.835Z,8.54
2023-04-18T08:25:01.102Z,8.61
2023-04-18T08:25:47.860Z,8.56
2023-04-18T08:26:46.847Z,8.64
2023-04-18T08:27:46.873Z,8.78
2023-04-18T08:28:46.905Z,8.89
2023-04-18T08:29:47.148Z,8.93
2023-04-18T08:30:46.886Z,7.87
2023-04-18T08:31:46.879Z,8.10
2023-04-18T08:32:46.893Z,6.82
2023-04-18T08:33:46.874Z,5.60
2023-04-18T08:34:47.137Z,4.19
2023-04-18T08:35:46.879Z,3.14
2023-04-18T08:36:46.904Z,2.47
2023-04-18T08:37:46.923Z,1.54
2023-04-18T08:38:46.890Z,0.95
2023-04-18T08:39:46.916Z,0.63
2023-04-18T08:40:46.925Z,0.51
2023-04-18T08:41:46.910Z,0.46
2023-04-18T08:42:46.946Z,0.43
2023-04-18T08:43:46.989Z,0.47
2023-04-18T08:44:47.056Z,0.45
2023-04-18T08:45:47.127Z,0.45
2023-04-18T08:46:47.162Z,0.47
2023-04-18T08:47:47.335Z,0.45
2023-04-18T08:48:47.278Z,0.48
2023-04-18T08:49:47.663Z,0.60
2023-04-18T08:50:47.452Z,0.56
2023-04-18T08:51:47.540Z,0.82
2023-04-18T08:52:47.580Z,1.02
2023-04-18T08:53:47.610Z,0.50
2023-04-18T08:54:47.745Z,0.49
2023-04-18T08:55:47.785Z,0.49
2023-04-18T08:56:47.874Z,0.50
2023-04-18T08:57:47.991Z,0.50
2023-04-18T08:58:48.034Z,0.55
2023-04-18T08:59:49.701Z,0.66
2023-04-18T09:00:48.137Z,0.69
2023-04-18T09:01:48.125Z,0.73
2023-04-18T09:02:48.299Z,0.71
2023-04-18T09:03:48.208Z,0.64
2023-04-18T09:04:48.644Z,0.64
2023-04-18T09:05:48.205Z,0.57
2023-04-18T09:06:48.256Z,0.52
2023-04-18T09:07:48.280Z,0.52
2023-04-18T09:08:48.287Z,0.53
2023-04-18T09:09:48.690Z,0.50
2023-04-18T09:10:48.359Z,0.50
2023-04-18T09:11:48.362Z,0.51
2023-04-18T09:12:48.526Z,0.52
2023-04-18T09:13:48.416Z,0.54
2023-04-18T09:14:48.440Z,0.51
2023-04-18T09:15:48.447Z,0.55
2023-04-18T09:16:48.505Z,0.55
2023-04-18T09:17:48.476Z,0.59
2023-04-18T09:18:48.529Z,0.60
2023-04-18T09:19:48.727Z,0.68
2023-04-18T09:20:48.554Z,0.59
2023-04-18T09:21:48.635Z,0.51
2023-04-18T09:22:48.625Z,0.50
2023-04-18T09:23:48.613Z,0.57
2023-04-18T09:24:48.670Z,0.70
2023-04-18T09:25:48.637Z,0.68
2023-04-18T09:26:48.683Z,0.65
2023-04-18T09:27:48.694Z,0.75
2023-04-18T09:28:48.701Z,0.79
2023-04-18T09:29:49.168Z,0.72
2023-04-18T09:30:48.788Z,0.66
2023-04-18T09:31:48.812Z,0.74
2023-04-18T09:32:48.834Z,0.68
2023-04-18T09:33:48.835Z,0.58
2023-04-18T09:34:48.813Z,0.65
2023-04-18T09:35:48.853Z,0.67
2023-04-18T09:36:48.996Z,0.64
2023-04-18T09:37:48.929Z,0.56
2023-04-18T09:38:48.946Z,0.49
2023-04-18T09:39:48.974Z,0.49
2023-04-18T09:40:49.179Z,0.48
2023-04-18T09:41:49.410Z,0.56
2023-04-18T09:42:51.925Z,0.51
2023-04-18T09:43:49.068Z,0.68
2023-04-18T09:44:49.089Z,1.77
2023-04-18T09:45:49.189Z,2.83
2023-04-18T09:46:49.137Z,4.03
2023-04-18T09:47:49.214Z,4.83
2023-04-18T09:48:49.236Z,5.91
2023-04-18T09:49:49.181Z,6.62
2023-04-18T09:50:49.666Z,7.39
2023-04-18T09:51:49.245Z,8.22
2023-04-18T09:52:49.279Z,6.53
2023-04-18T09:53:49.302Z,6.60
2023-04-18T09:54:49.310Z,6.72
2023-04-18T09:55:49.300Z,8.00
2023-04-18T09:56:49.354Z,5.64
2023-04-18T09:57:49.396Z,6.24
2023-04-18T09:58:49.371Z,4.22
2023-04-18T09:59:49.442Z,6.27
2023-04-18T10:00:49.640Z,7.16
2023-04-18T10:01:49.511Z,5.00
2023-04-18T10:02:49.495Z,4.07
2023-04-18T10:03:49.547Z,5.67
2023-04-18T10:04:49.575Z,5.53
2023-04-18T10:05:49.552Z,3.27
2023-04-18T10:06:49.511Z,3.67
2023-04-18T10:07:49.578Z,4.18
2023-04-18T10:08:49.605Z,2.22
2023-04-18T10:09:49.640Z,3.02
2023-04-18T10:10:49.662Z,4.67
2023-04-18T10:11:50.578Z,4.58
2023-04-18T10:12:49.667Z,5.83
2023-04-18T10:13:49.686Z,6.37
2023-04-18T10:14:49.680Z,5.12
2023-04-18T10:15:50.701Z,7.23
2023-04-18T10:16:50.597Z,6.42
2023-04-18T10:18:02.749Z,6.80
2023-04-18T10:18:50.787Z,6.84
2023-04-18T10:19:49.754Z,7.11
2023-04-18T10:20:49.780Z,5.83
2023-04-18T10:21:49.801Z,5.02
2023-04-18T10:22:49.795Z,4.78
2023-04-18T10:23:49.798Z,6.09
2023-04-18T10:24:50.029Z,7.94
2023-04-18T10:25:50.224Z,6.88
2023-04-18T10:26:50.916Z,8.03
2023-04-18T10:27:49.945Z,9.64
2023-04-18T10:28:49.907Z,11.53
2023-04-18T10:29:49.944Z,12.10
2023-04-18T10:30:50.166Z,10.77
2023-04-18T10:31:50.076Z,12.63
2023-04-18T10:32:50.132Z,13.46
2023-04-18T10:34:03.228Z,9.40
2023-04-18T10:34:51.170Z,9.48
2023-04-18T10:35:50.735Z,9.55
2023-04-18T10:36:50.238Z,7.85
2023-04-18T10:37:50.214Z,9.42
2023-04-18T10:38:50.213Z,12.47
2023-04-18T10:39:50.226Z,15.96
2023-04-18T10:40:50.730Z,17.47
2023-04-18T10:41:50.920Z,20.23
2023-04-18T10:42:50.344Z,7.55
2023-04-18T10:43:50.283Z,3.87
2023-04-18T10:44:50.335Z,2.99
2023-04-18T10:45:50.345Z,2.29
2023-04-18T10:46:50.413Z,1.83
2023-04-18T10:47:50.479Z,1.68
2023-04-18T10:48:50.499Z,2.26
2023-04-18T10:49:50.559Z,1.57
2023-04-18T10:50:50.640Z,1.04
2023-04-18T10:51:50.691Z,0.72
2023-04-18T10:52:50.754Z,0.60
2023-04-18T10:53:50.863Z,0.52
2023-04-18T10:54:50.914Z,0.52
2023-04-18T10:55:50.969Z,0.75
2023-04-18T10:56:51.074Z,0.99
2023-04-18T10:57:51.121Z,1.18
2023-04-18T10:58:51.331Z,0.82
2023-04-18T10:59:51.253Z,0.69
2023-04-18T11:00:51.398Z,0.55
2023-04-18T11:01:51.373Z,0.53
2023-04-18T11:02:51.725Z,0.50
2023-04-18T11:03:51.635Z,0.48
2023-04-18T11:04:51.611Z,0.45
2023-04-18T11:05:51.590Z,0.42
2023-04-18T11:06:52.226Z,0.38
2023-04-18T11:07:51.777Z,0.47
2023-04-18T11:08:51.865Z,0.50
2023-04-18T11:09:51.936Z,0.54
2023-04-18T11:10:51.944Z,0.54
2023-04-18T11:11:52.202Z,0.51
2023-04-18T11:12:52.085Z,0.50
2023-04-18T11:13:52.160Z,0.50
2023-04-18T11:14:52.188Z,0.50
2023-04-18T11:15:52.741Z,0.48
2023-04-18T11:16:52.282Z,0.51
2023-04-18T11:17:52.366Z,0.51
2023-04-18T11:18:52.362Z,0.61
2023-04-18T11:19:52.445Z,0.57
2023-04-18T11:20:52.471Z,1.04
2023-04-18T11:21:52.732Z,1.82
2023-04-18T11:22:52.572Z,2.99
2023-04-18T11:23:52.615Z,4.40
2023-04-18T11:24:52.705Z,6.57
2023-04-18T11:25:52.767Z,8.94
2023-04-18T11:26:52.823Z,12.82
2023-04-18T11:27:52.944Z,17.84
2023-04-18T11:28:53.029Z,22.30
2023-04-18T11:29:53.043Z,28.33
2023-04-18T11:30:53.055Z,36.65
2023-04-18T11:31:54.600Z,49.88
2023-04-18T11:32:53.211Z,104.67
2023-04-18T11:33:53.197Z,162.81
2023-04-18T11:34:53.187Z,197.86
2023-04-18T11:35:53.234Z,179.44
2023-04-18T11:36:53.225Z,208.81
2023-04-18T11:37:53.182Z,244.25
2023-04-18T11:38:53.232Z,268.38
2023-04-18T11:39:53.218Z,215.53
2023-04-18T11:40:53.196Z,219.91
2023-04-18T11:41:53.737Z,279.38
2023-04-18T11:42:53.244Z,256.81
2023-04-18T11:43:53.205Z,288.57
2023-04-18T11:44:53.238Z,316.72
2023-04-18T11:45:53.299Z,277.54
2023-04-18T11:46:53.251Z,266.53
2023-04-18T11:47:53.289Z,251.14
2023-04-18T11:48:53.284Z,239.33
2023-04-18T11:49:55.214Z,213.60
2023-04-18T11:50:53.283Z,213.76
2023-04-18T11:51:53.240Z,218.81
2023-04-18T11:52:53.324Z,223.37
2023-04-18T11:53:53.274Z,238.73
2023-04-18T11:54:53.312Z,261.51
2023-04-18T11:55:53.309Z,222.49
2023-04-18T11:56:53.323Z,223.92
2023-04-18T11:57:53.307Z,218.30
2023-04-18T11:58:53.317Z,199.92
2023-04-18T11:59:53.295Z,207.27
2023-04-18T12:00:53.301Z,195.03
2023-04-18T12:01:53.348Z,176.12
2023-04-18T12:02:53.462Z,200.48
2023-04-18T12:03:53.433Z,191.62
2023-04-18T12:04:53.738Z,170.93
2023-04-18T12:05:53.482Z,162.76
2023-04-18T12:06:53.357Z,153.31
2023-04-18T12:07:53.355Z,135.13
2023-04-18T12:08:54.100Z,144.19
2023-04-18T12:09:53.375Z,140.70
2023-04-18T12:10:53.365Z,128.39
2023-04-18T12:11:53.344Z,112.73
2023-04-18T12:12:53.390Z,105.33
2023-04-18T12:13:53.474Z,99.30
2023-04-18T12:14:53.391Z,98.96
2023-04-18T12:15:53.470Z,90.77
2023-04-18T12:16:53.428Z,73.54
2023-04-18T12:17:53.493Z,71.99
2023-04-18T12:18:53.427Z,62.75
2023-04-18T12:19:53.432Z,55.63
2023-04-18T12:20:53.429Z,53.53
2023-04-18T12:21:53.462Z,51.12
2023-04-18T12:22:53.446Z,51.80
2023-04-18T12:23:53.462Z,46.82
2023-04-18T12:24:53.520Z,44.26
2023-04-18T12:25:53.507Z,37.73
2023-04-18T12:26:53.528Z,37.20
2023-04-18T12:27:53.521Z,30.95
2023-04-18T12:28:53.542Z,29.17
2023-04-18T12:29:53.533Z,30.42
2023-04-18T12:30:53.567Z,29.35
2023-04-18T12:31:53.658Z,30.30
2023-04-18T12:32:53.594Z,32.21
2023-04-18T12:33:53.588Z,31.11
2023-04-18T12:34:53.573Z,33.71
2023-04-18T12:35:53.596Z,38.33
2023-04-18T12:36:53.603Z,34.49
2023-04-18T12:37:53.669Z,32.26
2023-04-18T12:38:53.715Z,28.81
2023-04-18T12:39:53.725Z,26.08
2023-04-18T12:40:53.816Z,24.54
2023-04-18T12:41:53.860Z,22.15
2023-04-18T12:42:53.904Z,22.93
2023-04-18T12:43:54.127Z,22.35
2023-04-18T12:44:54.009Z,20.56
2023-04-18T12:45:54.032Z,20.39
2023-04-18T12:46:54.116Z,20.19
2023-04-18T12:47:54.162Z,20.66
2023-04-18T12:48:54.208Z,21.78
2023-04-18T12:49:54.279Z,22.65
2023-04-18T12:50:54.363Z,26.25
2023-04-18T12:51:54.408Z,19.47
2023-04-18T12:52:54.481Z,16.45
2023-04-18T12:53:54.484Z,16.71
2023-04-18T12:54:54.535Z,17.51
2023-04-18T12:55:54.604Z,18.50
2023-04-18T12:56:54.681Z,20.39
2023-04-18T12:57:54.719Z,19.98
2023-04-18T12:58:54.777Z,18.18
2023-04-18T12:59:54.840Z,14.66
2023-04-18T13:00:54.952Z,13.70
2023-04-18T13:01:55.025Z,8.17
2023-04-18T13:02:55.139Z,6.75
2023-04-18T13:04:04.354Z,7.59
2023-04-18T13:04:56.102Z,7.63
2023-04-18T13:05:55.104Z,7.75
2023-04-18T13:06:55.121Z,7.94
2023-04-18T13:08:08.612Z,7.88
2023-04-18T13:08:56.111Z,7.62
2023-04-18T13:09:55.153Z,8.10
2023-04-18T13:10:55.120Z,9.37
2023-04-18T13:11:55.195Z,12.73
2023-04-18T13:12:55.149Z,21.09
2023-04-18T13:13:55.208Z,26.51
2023-04-18T13:14:55.243Z,26.86